sensor_id;sensor_type;location;lat;lon;timestamp;pressure;altitude;pressure_sealevel;temperature;humidity
13068;BME280;6600;51.362;6.686;2023-07-13T00:00:41;101038.69;;;18.03;76.51
13068;BME280;6600;51.362;6.686;2023-07-13T00:03:06;101042.50;;;18.07;76.62
13068;BME280;6600;51.362;6.686;2023-07-13T00:05:31;101041.56;;;17.96;75.61
13068;BME280;6600;51.362;6.686;2023-07-13T00:07:57;101034.63;;;18.05;76.28
13068;BME280;6600;51.362;6.686;2023-07-13T00:10:22;101033.19;;;17.98;76.79
13068;BME280;6600;51.362;6.686;2023-07-13T00:12:48;101039.66;;;17.92;76.69
13068;BME280;6600;51.362;6.686;2023-07-13T00:15:17;101033.91;;;17.88;77.62
13068;BME280;6600;51.362;6.686;2023-07-13T00:17:47;101037.19;;;17.90;77.57
13068;BME280;6600;51.362;6.686;2023-07-13T00:20:12;101042.91;;;17.94;77.62
13068;BME280;6600;51.362;6.686;2023-07-13T00:22:38;101048.75;;;17.81;78.13
13068;BME280;6600;51.362;6.686;2023-07-13T00:25:04;101044.16;;;17.81;78.58
13068;BME280;6600;51.362;6.686;2023-07-13T00:27:29;101040.31;;;17.77;78.63
13068;BME280;6600;51.362;6.686;2023-07-13T00:29:58;101032.88;;;17.67;78.91
13068;BME280;6600;51.362;6.686;2023-07-13T00:32:24;101031.75;;;17.63;79.08
13068;BME280;6600;51.362;6.686;2023-07-13T00:34:51;101039.31;;;17.61;79.18
13068;BME280;6600;51.362;6.686;2023-07-13T00:37:16;101033.91;;;17.61;79.56
13068;BME280;6600;51.362;6.686;2023-07-13T00:39:42;101036.47;;;17.73;78.54
13068;BME280;6600;51.362;6.686;2023-07-13T00:42:07;101042.66;;;17.95;78.21
13068;BME280;6600;51.362;6.686;2023-07-13T00:44:33;101033.13;;;17.93;78.18
13068;BME280;6600;51.362;6.686;2023-07-13T00:46:58;101042.50;;;17.80;77.72
13068;BME280;6600;51.362;6.686;2023-07-13T00:49:25;101038.94;;;17.75;78.41
13068;BME280;6600;51.362;6.686;2023-07-13T00:52:02;101043.31;;;17.81;78.04
13068;BME280;6600;51.362;6.686;2023-07-13T00:54:41;101045.72;;;17.55;79.10
13068;BME280;6600;51.362;6.686;2023-07-13T00:57:12;101051.63;;;17.52;79.44
13068;BME280;6600;51.362;6.686;2023-07-13T00:59:41;101042.44;;;17.53;79.46
13068;BME280;6600;51.362;6.686;2023-07-13T01:02:07;101052.16;;;17.49;79.64
13068;BME280;6600;51.362;6.686;2023-07-13T01:04:33;101054.31;;;17.47;79.45
13068;BME280;6600;51.362;6.686;2023-07-13T01:06:58;101055.78;;;17.38;79.69
13068;BME280;6600;51.362;6.686;2023-07-13T01:09:27;101047.44;;;17.40;79.53
13068;BME280;6600;51.362;6.686;2023-07-13T01:11:52;101046.69;;;17.44;79.62
13068;BME280;6600;51.362;6.686;2023-07-13T01:14:18;101056.44;;;17.45;79.26
13068;BME280;6600;51.362;6.686;2023-07-13T01:16:46;101048.25;;;17.40;79.84
13068;BME280;6600;51.362;6.686;2023-07-13T01:19:42;101054.06;;;17.27;80.27
13068;BME280;6600;51.362;6.686;2023-07-13T01:22:16;101043.22;;;17.27;80.75
13068;BME280;6600;51.362;6.686;2023-07-13T01:24:44;101050.25;;;17.28;80.30
13068;BME280;6600;51.362;6.686;2023-07-13T01:27:12;101045.84;;;17.22;80.44
13068;BME280;6600;51.362;6.686;2023-07-13T01:29:39;101039.28;;;17.18;80.75
13068;BME280;6600;51.362;6.686;2023-07-13T01:32:09;101048.63;;;17.27;80.72
13068;BME280;6600;51.362;6.686;2023-07-13T01:34:34;101055.03;;;17.21;81.17
13068;BME280;6600;51.362;6.686;2023-07-13T01:37:00;101050.63;;;17.15;81.75
13068;BME280;6600;51.362;6.686;2023-07-13T01:39:25;101057.06;;;17.09;82.03
13068;BME280;6600;51.362;6.686;2023-07-13T01:41:50;101050.50;;;17.05;82.27
13068;BME280;6600;51.362;6.686;2023-07-13T01:44:16;101048.34;;;17.07;82.46
13068;BME280;6600;51.362;6.686;2023-07-13T01:46:41;101046.22;;;17.09;82.74
13068;BME280;6600;51.362;6.686;2023-07-13T01:49:06;101045.91;;;17.05;82.59
13068;BME280;6600;51.362;6.686;2023-07-13T01:51:32;101048.69;;;16.94;83.03
13068;BME280;6600;51.362;6.686;2023-07-13T01:53:57;101052.00;;;16.96;82.85
13068;BME280;6600;51.362;6.686;2023-07-13T01:56:22;101053.13;;;17.00;82.95
13068;BME280;6600;51.362;6.686;2023-07-13T01:58:48;101049.53;;;16.94;83.46
13068;BME280;6600;51.362;6.686;2023-07-13T02:01:13;101056.25;;;16.92;83.68
13068;BME280;6600;51.362;6.686;2023-07-13T02:03:39;101056.44;;;16.85;83.83
13068;BME280;6600;51.362;6.686;2023-07-13T02:06:04;101047.50;;;16.85;83.97
13068;BME280;6600;51.362;6.686;2023-07-13T02:08:31;101053.47;;;16.87;84.05
13068;BME280;6600;51.362;6.686;2023-07-13T02:10:57;101052.47;;;16.93;83.92
13068;BME280;6600;51.362;6.686;2023-07-13T02:13:22;101057.09;;;16.92;83.80
13068;BME280;6600;51.362;6.686;2023-07-13T02:15:50;101057.88;;;16.93;83.82
13068;BME280;6600;51.362;6.686;2023-07-13T02:18:15;101049.16;;;16.86;83.76
13068;BME280;6600;51.362;6.686;2023-07-13T02:20:43;101055.63;;;16.85;84.22
13068;BME280;6600;51.362;6.686;2023-07-13T02:23:08;101046.75;;;16.89;83.88
13068;BME280;6600;51.362;6.686;2023-07-13T02:25:33;101052.19;;;16.73;84.83
13068;BME280;6600;51.362;6.686;2023-07-13T02:27:59;101054.72;;;16.79;84.57
13068;BME280;6600;51.362;6.686;2023-07-13T02:30:24;101062.19;;;16.72;85.49
13068;BME280;6600;51.362;6.686;2023-07-13T02:32:50;101056.28;;;16.58;85.62
13068;BME280;6600;51.362;6.686;2023-07-13T02:35:15;101056.28;;;16.58;85.61
13068;BME280;6600;51.362;6.686;2023-07-13T02:37:41;101065.66;;;16.67;85.87
13068;BME280;6600;51.362;6.686;2023-07-13T02:40:07;101065.06;;;16.65;85.45
13068;BME280;6600;51.362;6.686;2023-07-13T02:42:34;101056.91;;;16.49;86.20
13068;BME280;6600;51.362;6.686;2023-07-13T02:44:59;101061.94;;;16.40;86.73
13068;BME280;6600;51.362;6.686;2023-07-13T02:47:24;101055.44;;;16.41;87.31
13068;BME280;6600;51.362;6.686;2023-07-13T02:49:50;101065.69;;;16.39;86.75
13068;BME280;6600;51.362;6.686;2023-07-13T02:52:15;101058.06;;;16.36;87.10
13068;BME280;6600;51.362;6.686;2023-07-13T02:54:41;101064.53;;;16.35;87.30
13068;BME280;6600;51.362;6.686;2023-07-13T02:57:06;101065.53;;;16.29;87.61
13068;BME280;6600;51.362;6.686;2023-07-13T02:59:32;101057.91;;;16.26;87.78
13068;BME280;6600;51.362;6.686;2023-07-13T03:01:57;101060.44;;;16.33;87.92
13068;BME280;6600;51.362;6.686;2023-07-13T03:04:23;101061.16;;;16.28;88.00
13068;BME280;6600;51.362;6.686;2023-07-13T03:06:48;101065.13;;;16.37;87.87
13068;BME280;6600;51.362;6.686;2023-07-13T03:09:14;101060.72;;;16.48;87.69
13068;BME280;6600;51.362;6.686;2023-07-13T03:11:39;101057.56;;;16.23;88.13
13068;BME280;6600;51.362;6.686;2023-07-13T03:14:04;101056.09;;;16.32;88.18
13068;BME280;6600;51.362;6.686;2023-07-13T03:16:30;101065.03;;;16.32;88.53
13068;BME280;6600;51.362;6.686;2023-07-13T03:18:55;101071.19;;;16.44;87.86
13068;BME280;6600;51.362;6.686;2023-07-13T03:21:21;101079.72;;;16.36;88.26
13068;BME280;6600;51.362;6.686;2023-07-13T03:23:46;101085.13;;;16.36;88.44
13068;BME280;6600;51.362;6.686;2023-07-13T03:26:17;101084.53;;;16.34;88.44
13068;BME280;6600;51.362;6.686;2023-07-13T03:28:43;101085.28;;;16.30;88.72
13068;BME280;6600;51.362;6.686;2023-07-13T03:31:14;101082.78;;;16.28;88.76
13068;BME280;6600;51.362;6.686;2023-07-13T03:33:40;101083.13;;;16.32;88.82
13068;BME280;6600;51.362;6.686;2023-07-13T03:36:07;101082.31;;;16.31;88.59
13068;BME280;6600;51.362;6.686;2023-07-13T03:38:33;101095.75;;;16.26;88.73
13068;BME280;6600;51.362;6.686;2023-07-13T03:40:59;101094.44;;;16.29;89.23
13068;BME280;6600;51.362;6.686;2023-07-13T03:43:25;101097.69;;;16.14;89.71
13068;BME280;6600;51.362;6.686;2023-07-13T03:45:50;101093.44;;;16.18;90.03
13068;BME280;6600;51.362;6.686;2023-07-13T03:48:15;101101.47;;;16.13;90.17
13068;BME280;6600;51.362;6.686;2023-07-13T03:50:41;101105.41;;;16.22;90.17
13068;BME280;6600;51.362;6.686;2023-07-13T03:53:07;101105.31;;;16.17;90.65
13068;BME280;6600;51.362;6.686;2023-07-13T03:55:32;101107.41;;;16.27;90.55
13068;BME280;6600;51.362;6.686;2023-07-13T03:58:24;101106.66;;;16.31;90.34
13068;BME280;6600;51.362;6.686;2023-07-13T04:00:43;101106.56;;;16.26;90.40
13068;BME280;6600;51.362;6.686;2023-07-13T04:03:09;101115.25;;;16.28;90.86
13068;BME280;6600;51.362;6.686;2023-07-13T04:05:34;101113.69;;;16.32;89.87
13068;BME280;6600;51.362;6.686;2023-07-13T04:08:00;101108.63;;;16.36;90.72
13068;BME280;6600;51.362;6.686;2023-07-13T04:10:25;101125.09;;;16.34;90.33
13068;BME280;6600;51.362;6.686;2023-07-13T04:12:51;101124.63;;;16.37;90.69
13068;BME280;6600;51.362;6.686;2023-07-13T04:15:16;101131.66;;;16.38;90.96
13068;BME280;6600;51.362;6.686;2023-07-13T04:17:41;101126.34;;;16.43;90.67
13068;BME280;6600;51.362;6.686;2023-07-13T04:20:07;101131.81;;;16.48;90.65
13068;BME280;6600;51.362;6.686;2023-07-13T04:22:32;101125.63;;;16.48;90.40
13068;BME280;6600;51.362;6.686;2023-07-13T04:24:58;101129.63;;;16.45;90.64
13068;BME280;6600;51.362;6.686;2023-07-13T04:27:23;101129.22;;;16.53;90.57
13068;BME280;6600;51.362;6.686;2023-07-13T04:29:48;101133.75;;;16.48;90.57
13068;BME280;6600;51.362;6.686;2023-07-13T04:32:14;101130.41;;;16.57;90.09
13068;BME280;6600;51.362;6.686;2023-07-13T04:34:39;101142.16;;;16.51;89.94
13068;BME280;6600;51.362;6.686;2023-07-13T04:37:04;101135.22;;;16.55;90.68
13068;BME280;6600;51.362;6.686;2023-07-13T04:39:30;101133.69;;;16.59;90.60
13068;BME280;6600;51.362;6.686;2023-07-13T04:41:55;101139.09;;;16.59;90.58
13068;BME280;6600;51.362;6.686;2023-07-13T04:44:21;101140.59;;;16.67;90.23
13068;BME280;6600;51.362;6.686;2023-07-13T04:46:46;101131.06;;;16.64;90.26
13068;BME280;6600;51.362;6.686;2023-07-13T04:49:11;101135.00;;;16.74;90.23
13068;BME280;6600;51.362;6.686;2023-07-13T04:51:37;101132.97;;;16.81;90.07
13068;BME280;6600;51.362;6.686;2023-07-13T04:54:02;101132.06;;;16.92;89.76
13068;BME280;6600;51.362;6.686;2023-07-13T04:56:27;101140.19;;;16.92;90.05
13068;BME280;6600;51.362;6.686;2023-07-13T04:58:53;101137.78;;;17.12;89.54
13068;BME280;6600;51.362;6.686;2023-07-13T05:01:18;101144.00;;;17.29;88.79
13068;BME280;6600;51.362;6.686;2023-07-13T05:03:43;101146.06;;;17.60;87.62
13068;BME280;6600;51.362;6.686;2023-07-13T05:06:09;101147.00;;;17.93;86.28
13068;BME280;6600;51.362;6.686;2023-07-13T05:08:38;101148.19;;;18.24;84.75
13068;BME280;6600;51.362;6.686;2023-07-13T05:11:04;101153.03;;;18.48;84.20
13068;BME280;6600;51.362;6.686;2023-07-13T05:13:30;101158.56;;;18.58;83.15
13068;BME280;6600;51.362;6.686;2023-07-13T05:16:04;101148.09;;;18.72;83.27
13068;BME280;6600;51.362;6.686;2023-07-13T05:18:31;101145.50;;;18.82;82.67
13068;BME280;6600;51.362;6.686;2023-07-13T05:21:06;101139.19;;;18.77;82.44
13068;BME280;6600;51.362;6.686;2023-07-13T05:23:33;101152.66;;;18.61;83.25
13068;BME280;6600;51.362;6.686;2023-07-13T05:25:59;101152.38;;;18.63;83.25
13068;BME280;6600;51.362;6.686;2023-07-13T05:28:25;101157.34;;;18.71;83.70
13068;BME280;6600;51.362;6.686;2023-07-13T05:30:50;101161.50;;;18.79;83.36
13068;BME280;6600;51.362;6.686;2023-07-13T05:33:15;101164.75;;;18.81;83.77
13068;BME280;6600;51.362;6.686;2023-07-13T05:35:41;101161.59;;;18.94;82.92
13068;BME280;6600;51.362;6.686;2023-07-13T05:38:06;101162.19;;;18.96;82.80
13068;BME280;6600;51.362;6.686;2023-07-13T05:40:32;101172.84;;;19.07;82.68
13068;BME280;6600;51.362;6.686;2023-07-13T05:42:57;101166.16;;;19.20;82.25
13068;BME280;6600;51.362;6.686;2023-07-13T05:45:22;101165.09;;;19.26;82.02
13068;BME280;6600;51.362;6.686;2023-07-13T05:47:48;101173.28;;;19.31;82.03
13068;BME280;6600;51.362;6.686;2023-07-13T05:50:13;101165.78;;;19.43;81.50
13068;BME280;6600;51.362;6.686;2023-07-13T05:52:39;101175.19;;;19.78;80.47
13068;BME280;6600;51.362;6.686;2023-07-13T05:55:04;101182.19;;;19.63;80.89
13068;BME280;6600;51.362;6.686;2023-07-13T05:57:30;101180.03;;;19.65;80.79
13068;BME280;6600;51.362;6.686;2023-07-13T05:59:55;101188.41;;;19.54;81.26
13068;BME280;6600;51.362;6.686;2023-07-13T06:02:21;101185.44;;;19.60;81.25
13068;BME280;6600;51.362;6.686;2023-07-13T06:04:46;101198.06;;;19.87;81.07
13068;BME280;6600;51.362;6.686;2023-07-13T06:07:12;101208.41;;;19.90;80.89
13068;BME280;6600;51.362;6.686;2023-07-13T06:09:37;101210.59;;;19.88;80.35
13068;BME280;6600;51.362;6.686;2023-07-13T06:12:04;101194.06;;;20.04;79.61
13068;BME280;6600;51.362;6.686;2023-07-13T06:14:29;101207.88;;;19.93;79.66
13068;BME280;6600;51.362;6.686;2023-07-13T06:16:54;101200.75;;;19.72;80.79
13068;BME280;6600;51.362;6.686;2023-07-13T06:19:20;101205.66;;;19.75;81.31
13068;BME280;6600;51.362;6.686;2023-07-13T06:21:45;101205.06;;;19.67;81.50
13068;BME280;6600;51.362;6.686;2023-07-13T06:24:10;101213.00;;;19.79;81.43
13068;BME280;6600;51.362;6.686;2023-07-13T06:26:36;101217.09;;;19.82;81.50
13068;BME280;6600;51.362;6.686;2023-07-13T06:29:01;101223.16;;;19.99;80.80
13068;BME280;6600;51.362;6.686;2023-07-13T06:31:27;101206.06;;;20.08;80.68
13068;BME280;6600;51.362;6.686;2023-07-13T06:33:52;101214.78;;;20.21;80.55
13068;BME280;6600;51.362;6.686;2023-07-13T06:36:17;101209.22;;;20.57;80.22
13068;BME280;6600;51.362;6.686;2023-07-13T06:38:42;101211.69;;;20.79;79.13
13068;BME280;6600;51.362;6.686;2023-07-13T06:41:08;101211.94;;;20.62;78.55
13068;BME280;6600;51.362;6.686;2023-07-13T06:43:33;101225.81;;;20.41;79.82
13068;BME280;6600;51.362;6.686;2023-07-13T06:45:59;101225.22;;;20.29;80.58
13068;BME280;6600;51.362;6.686;2023-07-13T06:48:24;101229.75;;;20.18;80.70
13068;BME280;6600;51.362;6.686;2023-07-13T06:50:50;101230.47;;;19.93;81.02
13068;BME280;6600;51.362;6.686;2023-07-13T06:53:17;101238.03;;;19.86;82.61
13068;BME280;6600;51.362;6.686;2023-07-13T06:55:44;101236.38;;;19.80;81.95
13068;BME280;6600;51.362;6.686;2023-07-13T06:58:10;101249.63;;;19.61;83.29
13068;BME280;6600;51.362;6.686;2023-07-13T07:00:35;101242.38;;;19.40;83.70
13068;BME280;6600;51.362;6.686;2023-07-13T07:03:00;101239.66;;;19.40;83.53
13068;BME280;6600;51.362;6.686;2023-07-13T07:05:26;101245.34;;;19.39;84.13
13068;BME280;6600;51.362;6.686;2023-07-13T07:07:53;101254.31;;;19.39;84.44
13068;BME280;6600;51.362;6.686;2023-07-13T07:10:19;101252.66;;;19.33;84.66
13068;BME280;6600;51.362;6.686;2023-07-13T07:12:45;101246.59;;;19.26;84.77
13068;BME280;6600;51.362;6.686;2023-07-13T07:15:11;101251.84;;;19.38;84.66
13068;BME280;6600;51.362;6.686;2023-07-13T07:17:36;101254.88;;;19.41;84.82
13068;BME280;6600;51.362;6.686;2023-07-13T07:20:02;101256.00;;;19.45;84.65
13068;BME280;6600;51.362;6.686;2023-07-13T07:22:29;101262.09;;;19.62;84.37
13068;BME280;6600;51.362;6.686;2023-07-13T07:24:55;101262.47;;;19.39;83.83
13068;BME280;6600;51.362;6.686;2023-07-13T07:27:21;101266.66;;;19.52;83.83
13068;BME280;6600;51.362;6.686;2023-07-13T07:29:46;101268.53;;;19.46;83.09
13068;BME280;6600;51.362;6.686;2023-07-13T07:32:12;101264.69;;;19.42;83.67
13068;BME280;6600;51.362;6.686;2023-07-13T07:34:37;101262.56;;;19.44;83.06
13068;BME280;6600;51.362;6.686;2023-07-13T07:37:03;101267.47;;;19.47;84.00
13068;BME280;6600;51.362;6.686;2023-07-13T07:39:29;101264.22;;;19.50;83.55
13068;BME280;6600;51.362;6.686;2023-07-13T07:41:55;101264.31;;;19.65;83.74
13068;BME280;6600;51.362;6.686;2023-07-13T07:44:20;101264.88;;;19.67;83.41
13068;BME280;6600;51.362;6.686;2023-07-13T07:46:46;101263.34;;;19.87;83.00
13068;BME280;6600;51.362;6.686;2023-07-13T07:49:11;101257.84;;;19.77;82.28
13068;BME280;6600;51.362;6.686;2023-07-13T07:51:37;101265.66;;;19.63;82.55
13068;BME280;6600;51.362;6.686;2023-07-13T07:54:03;101261.16;;;19.79;82.35
13068;BME280;6600;51.362;6.686;2023-07-13T07:56:29;101268.72;;;19.77;82.87
13068;BME280;6600;51.362;6.686;2023-07-13T07:58:55;101256.00;;;19.82;82.25
13068;BME280;6600;51.362;6.686;2023-07-13T08:01:20;101255.81;;;19.99;82.42
13068;BME280;6600;51.362;6.686;2023-07-13T08:03:46;101258.50;;;19.94;82.44
13068;BME280;6600;51.362;6.686;2023-07-13T08:06:11;101265.13;;;20.18;82.05
13068;BME280;6600;51.362;6.686;2023-07-13T08:08:36;101254.63;;;20.42;80.88
13068;BME280;6600;51.362;6.686;2023-07-13T08:11:04;101257.16;;;20.63;80.62
13068;BME280;6600;51.362;6.686;2023-07-13T08:13:29;101255.03;;;20.91;79.43
13068;BME280;6600;51.362;6.686;2023-07-13T08:15:55;101246.63;;;21.17;79.75
13068;BME280;6600;51.362;6.686;2023-07-13T08:18:20;101246.88;;;21.46;78.90
13068;BME280;6600;51.362;6.686;2023-07-13T08:20:45;101249.56;;;21.72;76.84
13068;BME280;6600;51.362;6.686;2023-07-13T08:23:11;101249.06;;;21.49;77.08
13068;BME280;6600;51.362;6.686;2023-07-13T08:25:36;101254.50;;;21.54;76.35
13068;BME280;6600;51.362;6.686;2023-07-13T08:28:02;101246.84;;;21.72;76.21
13068;BME280;6600;51.362;6.686;2023-07-13T08:30:28;101249.59;;;21.51;76.67
13068;BME280;6600;51.362;6.686;2023-07-13T08:32:54;101251.25;;;21.32;76.87
13068;BME280;6600;51.362;6.686;2023-07-13T08:35:19;101255.63;;;21.23;78.27
13068;BME280;6600;51.362;6.686;2023-07-13T08:37:45;101243.63;;;21.29;77.77
13068;BME280;6600;51.362;6.686;2023-07-13T08:40:11;101242.53;;;21.40;78.57
13068;BME280;6600;51.362;6.686;2023-07-13T08:42:54;101244.41;;;21.50;78.73
13068;BME280;6600;51.362;6.686;2023-07-13T08:45:42;101244.41;;;21.60;78.70
13068;BME280;6600;51.362;6.686;2023-07-13T08:48:35;101241.38;;;21.66;75.95
13068;BME280;6600;51.362;6.686;2023-07-13T08:54:00;101244.09;;;21.77;76.62
13068;BME280;6600;51.362;6.686;2023-07-13T08:56:28;101240.22;;;21.98;76.53
13068;BME280;6600;51.362;6.686;2023-07-13T08:59:09;101242.41;;;22.01;76.58
13068;BME280;6600;51.362;6.686;2023-07-13T09:02:00;101248.91;;;22.10;76.87
13068;BME280;6600;51.362;6.686;2023-07-13T09:04:45;101259.50;;;22.27;76.57
13068;BME280;6600;51.362;6.686;2023-07-13T09:13:00;101248.69;;;22.55;75.11
13068;BME280;6600;51.362;6.686;2023-07-13T09:15:39;101254.09;;;22.71;75.20
13068;BME280;6600;51.362;6.686;2023-07-13T09:20:52;101261.31;;;22.41;74.81
13068;BME280;6600;51.362;6.686;2023-07-13T09:23:23;101260.81;;;22.34;75.80
13068;BME280;6600;51.362;6.686;2023-07-13T09:25:55;101257.50;;;22.42;75.92
13068;BME280;6600;51.362;6.686;2023-07-13T09:28:33;101254.88;;;22.27;75.30
13068;BME280;6600;51.362;6.686;2023-07-13T09:31:15;101256.69;;;22.47;74.58
13068;BME280;6600;51.362;6.686;2023-07-13T09:33:41;101264.22;;;22.70;75.39
13068;BME280;6600;51.362;6.686;2023-07-13T09:36:28;101250.72;;;22.89;73.96
13068;BME280;6600;51.362;6.686;2023-07-13T09:46:39;101261.81;;;23.02;72.22
13068;BME280;6600;51.362;6.686;2023-07-13T09:49:10;101266.72;;;22.51;73.00
13068;BME280;6600;51.362;6.686;2023-07-13T09:51:40;101259.09;;;22.53;73.06
13068;BME280;6600;51.362;6.686;2023-07-13T09:54:08;101266.00;;;22.41;73.84
13068;BME280;6600;51.362;6.686;2023-07-13T09:56:42;101265.22;;;22.25;74.08
13068;BME280;6600;51.362;6.686;2023-07-13T09:59:19;101263.06;;;22.17;73.93
13068;BME280;6600;51.362;6.686;2023-07-13T10:01:44;101269.66;;;22.16;74.46
13068;BME280;6600;51.362;6.686;2023-07-13T10:04:12;101263.59;;;22.29;74.02
13068;BME280;6600;51.362;6.686;2023-07-13T10:06:38;101267.78;;;22.60;72.86
13068;BME280;6600;51.362;6.686;2023-07-13T10:09:07;101277.06;;;22.64;71.37
13068;BME280;6600;51.362;6.686;2023-07-13T10:11:35;101265.78;;;22.81;72.97
13068;BME280;6600;51.362;6.686;2023-07-13T10:14:22;101264.75;;;23.11;70.80
13068;BME280;6600;51.362;6.686;2023-07-13T10:16:59;101273.25;;;23.09;70.19
13068;BME280;6600;51.362;6.686;2023-07-13T10:19:31;101274.00;;;23.15;70.61
13068;BME280;6600;51.362;6.686;2023-07-13T10:23:13;101278.97;;;23.13;70.40
13068;BME280;6600;51.362;6.686;2023-07-13T10:25:21;101277.47;;;23.26;68.58
13068;BME280;6600;51.362;6.686;2023-07-13T10:27:50;101274.03;;;23.10;67.07
13068;BME280;6600;51.362;6.686;2023-07-13T10:32:42;101271.09;;;23.35;68.99
13068;BME280;6600;51.362;6.686;2023-07-13T10:35:11;101274.91;;;23.44;68.41
13068;BME280;6600;51.362;6.686;2023-07-13T10:37:54;101271.03;;;23.74;67.47
13068;BME280;6600;51.362;6.686;2023-07-13T10:40:35;101267.53;;;23.69;66.73
13068;BME280;6600;51.362;6.686;2023-07-13T10:43:06;101278.31;;;23.84;65.60
13068;BME280;6600;51.362;6.686;2023-07-13T10:45:35;101271.78;;;24.03;65.55
13068;BME280;6600;51.362;6.686;2023-07-13T10:48:01;101276.53;;;23.98;65.93
13068;BME280;6600;51.362;6.686;2023-07-13T10:50:29;101270.66;;;23.86;65.92
13068;BME280;6600;51.362;6.686;2023-07-13T10:53:16;101274.97;;;23.92;64.23
13068;BME280;6600;51.362;6.686;2023-07-13T10:58:19;101275.09;;;23.48;63.77
13068;BME280;6600;51.362;6.686;2023-07-13T11:01:01;101260.41;;;23.39;65.71
13068;BME280;6600;51.362;6.686;2023-07-13T11:03:29;101274.84;;;23.78;67.57
13068;BME280;6600;51.362;6.686;2023-07-13T11:18:45;101269.47;;;23.92;61.57
13068;BME280;6600;51.362;6.686;2023-07-13T11:21:22;101271.91;;;23.93;62.66
13068;BME280;6600;51.362;6.686;2023-07-13T11:24:01;101263.72;;;24.17;63.11
13068;BME280;6600;51.362;6.686;2023-07-13T11:31:42;101253.97;;;24.91;60.93
13068;BME280;6600;51.362;6.686;2023-07-13T11:34:14;101253.03;;;24.77;59.73
13068;BME280;6600;51.362;6.686;2023-07-13T11:36:43;101248.75;;;25.08;62.14
13068;BME280;6600;51.362;6.686;2023-07-13T11:39:23;101250.03;;;24.78;60.32
13068;BME280;6600;51.362;6.686;2023-07-13T11:41:50;101250.25;;;24.82;60.85
13068;BME280;6600;51.362;6.686;2023-07-13T11:44:21;101244.53;;;24.97;59.74
13068;BME280;6600;51.362;6.686;2023-07-13T11:46:49;101245.34;;;25.16;59.66
13068;BME280;6600;51.362;6.686;2023-07-13T11:49:21;101253.63;;;25.11;57.89
13068;BME280;6600;51.362;6.686;2023-07-13T11:51:47;101248.41;;;25.28;57.26
13068;BME280;6600;51.362;6.686;2023-07-13T11:54:27;101247.72;;;25.04;58.93
13068;BME280;6600;51.362;6.686;2023-07-13T11:56:57;101234.03;;;25.50;60.52
13068;BME280;6600;51.362;6.686;2023-07-13T11:59:25;101239.75;;;25.53;58.22
13068;BME280;6600;51.362;6.686;2023-07-13T12:01:53;101244.81;;;25.46;59.12
13068;BME280;6600;51.362;6.686;2023-07-13T12:04:25;101247.78;;;24.80;58.69
13068;BME280;6600;51.362;6.686;2023-07-13T12:07:04;101240.75;;;24.93;59.94
13068;BME280;6600;51.362;6.686;2023-07-13T12:09:30;101238.28;;;25.10;59.39
13068;BME280;6600;51.362;6.686;2023-07-13T12:11:57;101237.03;;;25.35;59.38
13068;BME280;6600;51.362;6.686;2023-07-13T12:14:25;101240.31;;;25.37;56.68
13068;BME280;6600;51.362;6.686;2023-07-13T12:16:52;101246.00;;;25.40;57.47
13068;BME280;6600;51.362;6.686;2023-07-13T12:21:48;101228.28;;;25.19;57.00
13068;BME280;6600;51.362;6.686;2023-07-13T12:24:19;101238.44;;;25.19;58.23
13068;BME280;6600;51.362;6.686;2023-07-13T12:26:54;101220.47;;;24.94;59.05
13068;BME280;6600;51.362;6.686;2023-07-13T12:29:20;101235.28;;;25.25;57.14
13068;BME280;6600;51.362;6.686;2023-07-13T12:31:49;101230.31;;;25.27;56.57
13068;BME280;6600;51.362;6.686;2023-07-13T12:34:25;101235.78;;;25.27;57.42
13068;BME280;6600;51.362;6.686;2023-07-13T12:36:56;101239.84;;;25.16;58.06
13068;BME280;6600;51.362;6.686;2023-07-13T12:39:46;101233.13;;;24.90;57.77
13068;BME280;6600;51.362;6.686;2023-07-13T12:42:26;101233.53;;;24.22;58.22
13068;BME280;6600;51.362;6.686;2023-07-13T12:45:41;101238.16;;;24.27;59.89
13068;BME280;6600;51.362;6.686;2023-07-13T12:47:43;101245.81;;;24.25;60.32
13068;BME280;6600;51.362;6.686;2023-07-13T12:50:16;101250.72;;;24.04;60.83
13068;BME280;6600;51.362;6.686;2023-07-13T12:52:44;101248.78;;;24.04;63.00
13068;BME280;6600;51.362;6.686;2023-07-13T12:55:18;101246.41;;;23.98;62.85
13068;BME280;6600;51.362;6.686;2023-07-13T12:57:57;101247.50;;;23.97;60.87
13068;BME280;6600;51.362;6.686;2023-07-13T13:00:32;101239.53;;;24.00;61.64
13068;BME280;6600;51.362;6.686;2023-07-13T13:03:06;101246.59;;;24.30;61.41
13068;BME280;6600;51.362;6.686;2023-07-13T13:05:33;101244.25;;;24.61;58.73
13068;BME280;6600;51.362;6.686;2023-07-13T13:07:59;101246.25;;;24.93;57.52
13068;BME280;6600;51.362;6.686;2023-07-13T13:10:24;101251.94;;;24.78;56.08
13068;BME280;6600;51.362;6.686;2023-07-13T13:12:50;101242.16;;;25.09;57.74
13068;BME280;6600;51.362;6.686;2023-07-13T13:15:15;101243.16;;;25.45;54.97
13068;BME280;6600;51.362;6.686;2023-07-13T13:17:42;101250.28;;;25.46;55.33
13068;BME280;6600;51.362;6.686;2023-07-13T13:20:19;101241.41;;;25.54;54.95
13068;BME280;6600;51.362;6.686;2023-07-13T13:22:45;101244.13;;;25.22;55.04
13068;BME280;6600;51.362;6.686;2023-07-13T13:25:12;101240.19;;;24.96;55.14
13068;BME280;6600;51.362;6.686;2023-07-13T13:27:39;101240.91;;;24.83;57.58
13068;BME280;6600;51.362;6.686;2023-07-13T13:30:11;101246.16;;;24.79;57.67
13068;BME280;6600;51.362;6.686;2023-07-13T13:32:39;101250.00;;;24.59;58.11
13068;BME280;6600;51.362;6.686;2023-07-13T13:35:05;101253.59;;;24.79;57.74
13068;BME280;6600;51.362;6.686;2023-07-13T13:37:31;101246.03;;;24.71;58.06
13068;BME280;6600;51.362;6.686;2023-07-13T13:39:57;101251.56;;;24.65;59.09
13068;BME280;6600;51.362;6.686;2023-07-13T13:42:22;101254.41;;;24.98;59.36
13068;BME280;6600;51.362;6.686;2023-07-13T13:44:50;101245.44;;;24.92;59.19
13068;BME280;6600;51.362;6.686;2023-07-13T13:47:29;101251.84;;;25.20;58.40
13068;BME280;6600;51.362;6.686;2023-07-13T13:49:55;101246.94;;;25.17;58.09